Flight Track Log - Related Links

Times and Time Zones

All times are in EDT time to prevent confusion due to time zone crossing. See the SWA565 flight status page for this flight to view local times or setup timezone preferences in your user account.

Time Position Orientation Groundspeed Altitude Reporting Facility
EDT Latitude Longitude Course Direction KTS MPH feet Rate Location/Type
Thu 10:26:33 PM 39.1500 -76.6667 270° West 147 169 1,300  Level Potomac TRACON
Thu 10:27:32 PM 39.1500 -76.7000 270° West 214 246 4,400 2,723 Climbing Potomac TRACON
Thu 10:28:32 PM 39.1833 -76.7833 297° West 276 318 6,700 2,983 Climbing Potomac TRACON
Thu 10:30:27 PM 39.2142 -76.9606 283° West 297 342 13,100 3,429 Climbing Washington Center
Thu 10:31:27 PM 39.2128 -77.0650 269° West 292 336 16,700 3,650 Climbing Washington Center
Thu 10:32:27 PM 39.1969 -77.1664 259° West 292 336 20,400 3,150 Climbing Washington Center
Thu 10:33:27 PM 39.1294 -77.2292 216° Southwest 271 312 23,000 1,300 Climbing Washington Center
Thu 10:34:27 PM 39.0597 -77.2997 218° Southwest 295 339 23,000 150 Level Washington Center
Thu 10:35:27 PM 39.0331 -77.4114 253° West 302 348 23,300 1,500 Climbing Washington Center
Thu 10:36:27 PM 39.0017 -77.5522 254° West 331 381 26,000 2,050 Climbing Washington Center
Thu 10:37:27 PM 38.9769 -77.6664 254° West 380 437 27,400 1,200 Climbing Washington Center
Thu 10:38:27 PM 38.9450 -77.8069 254° West 380 437 28,400 1,100 Climbing Washington Center
Thu 10:39:27 PM 38.9156 -77.9394 254° West 380 437 29,600 1,550 Climbing Washington Center
Thu 10:40:27 PM 38.8836 -78.0717 253° West 391 450 31,500 1,200 Climbing Washington Center
Thu 10:41:27 PM 38.8558 -78.2094 256° West 397 457 32,000 300 Climbing Washington Center
Thu 10:42:27 PM 38.8506 -78.3531 267° West 402 463 32,100  Climbing Washington Center
Thu 10:43:27 PM 38.8494 -78.4836 269° West 408 470 32,000 -50 Descending Washington Center
Thu 10:44:27 PM 38.8458 -78.6328 268° West 413 475 32,000  Level Washington Center
Thu 10:45:27 PM 38.8442 -78.7794 269° West 418 481 32,000 500 Level Washington Center
Thu 10:46:27 PM 38.8422 -78.9258 269° West 418 481 33,000 1,613 Climbing Washington Center
Thu 10:47:26 PM 38.8419 -79.0778 270° West 418 481 35,200 1,950 Climbing Washington Center
Thu 10:48:27 PM 38.8336 -79.2186 266° West 418 481 36,900 1,388 Climbing Washington Center
Thu 10:49:27 PM 38.8106 -79.3589 258° West 413 475 38,000 550 Climbing Washington Center
Thu 10:50:27 PM 38.7833 -79.4933 255° West 403 464 38,000  Level Washington Center
Thu 10:51:27 PM 38.7664 -79.6333 261° West 403 464 38,000 34 Level Washington Center
Thu 10:53:25 PM 38.7156 -79.8872 256° West 388 447 38,100  Climbing Indianapolis Center
Thu 10:54:26 PM 38.6900 -80.0217 256° West 389 448 38,000  Descending Indianapolis Center
Thu 10:55:27 PM 38.6644 -80.1556 256° West 387 445 38,100  Climbing Indianapolis Center
Thu 10:56:28 PM 38.6394 -80.2914 257° West 391 450 38,000 -49 Descending Indianapolis Center
Thu 10:57:30 PM 38.6081 -80.4531 256° West 389 448 38,000 49 Level Indianapolis Center
Thu 10:58:31 PM 38.5844 -80.5892 258° West 391 450 38,100 49 Climbing Indianapolis Center
Thu 10:59:32 PM 38.5569 -80.7242 255° West 393 452 38,100 -49 Level Indianapolis Center
Thu 11:00:34 PM 38.5311 -80.8589 256° West 390 449 38,000  Descending Indianapolis Center
Thu 11:01:35 PM 38.5042 -80.9922 256° West 387 445 38,100 49 Climbing Indianapolis Center
Thu 11:02:36 PM 38.4786 -81.1250 256° West 385 443 38,100 -49 Level Indianapolis Center
Thu 11:03:38 PM 38.4522 -81.2578 256° West 383 441 38,000  Descending Indianapolis Center
Thu 11:04:39 PM 38.4256 -81.3889 255° West 379 436 38,100 49 Climbing Indianapolis Center
Thu 11:05:40 PM 38.4000 -81.5211 256° West 379 436 38,100 -49 Level Indianapolis Center
Thu 11:06:42 PM 38.3739 -81.6517 256° West 378 435 38,000  Descending Indianapolis Center
Thu 11:07:43 PM 38.3472 -81.7808 255° West 375 432 38,100  Climbing Indianapolis Center
Thu 11:08:44 PM 38.3117 -81.9067 250° West 376 433 38,000  Descending Indianapolis Center
Thu 11:09:46 PM 38.2761 -82.0333 250° West 379 436 38,100 49 Climbing Indianapolis Center
Thu 11:10:47 PM 38.2397 -82.1594 250° West 379 436 38,100  Level Indianapolis Center
Thu 11:11:48 PM 38.1825 -82.3019 243° Southwest 376 433 38,100  Level Indianapolis Center
Thu 11:12:50 PM 38.1319 -82.4175 241° Southwest 373 429 38,100  Level Indianapolis Center
Thu 11:13:51 PM 38.0800 -82.5339 240° Southwest 370 426 38,100  Level Indianapolis Center
Thu 11:14:53 PM 38.0300 -82.6472 241° Southwest 370 426 38,100 -244 Level Indianapolis Center
Thu 11:15:54 PM 37.9800 -82.7600 241° Southwest 369 425 37,600 -787 Descending Indianapolis Center
Thu 11:16:55 PM 37.9306 -82.8722 241° Southwest 366 421 36,500 -780 Descending Indianapolis Center
Thu 11:17:57 PM 37.8819 -82.9797 240° Southwest 357 411 36,000 -244 Descending Indianapolis Center
Thu 11:18:58 PM 37.8331 -83.0886 240° Southwest 358 412 36,000  Level Indianapolis Center
Thu 11:20:00 PM 37.7758 -83.2144 240° Southwest 354 407 36,000  Level Indianapolis Center
Thu 11:21:01 PM 37.7303 -83.3186 241° Southwest 346 398 36,000 -344 Level Indianapolis Center
Thu 11:22:02 PM 37.6844 -83.4192 240° Southwest 336 387 35,300 -787 Descending Indianapolis Center
Thu 11:23:03 PM 37.6381 -83.5200 240° Southwest 334 384 34,400 -634 Descending Indianapolis Center
Thu 11:24:05 PM 37.5894 -83.6256 240° Southwest 344 396 34,000 -293 Descending Indianapolis Center
Thu 11:25:06 PM 37.5414 -83.7303 240° Southwest 346 398 33,800 -492 Descending Indianapolis Center
Thu 11:26:07 PM 37.4931 -83.8356 240° Southwest 348 400 33,000 -780 Descending Indianapolis Center
Thu 11:27:09 PM 37.4383 -83.9553 240° Southwest 382 440 32,200 -878 Descending Indianapolis Center
Thu 11:28:10 PM 37.3722 -84.0975 240° Southwest 400 460 31,200 -984 Descending Indianapolis Center
Thu 11:29:11 PM 37.3142 -84.2222 240° Southwest 409 471 30,200 -984 Descending Indianapolis Center
Thu 11:30:12 PM 37.2564 -84.3472 240° Southwest 414 476 29,200 -927 Descending Indianapolis Center
Thu 11:31:14 PM 37.1964 -84.4733 239° Southwest 419 482 28,300 -927 Descending Indianapolis Center
Thu 11:32:15 PM 37.1369 -84.6011 240° Southwest 423 487 27,300 -1,033 Descending Indianapolis Center
Thu 11:33:16 PM 37.0786 -84.7267 240° Southwest 418 481 26,200 -1,073 Descending Indianapolis Center
Thu 11:34:18 PM 37.0164 -84.8578 239° Southwest 403 464 25,100 -1,073 Descending Indianapolis Center
Thu 11:35:19 PM 36.9622 -84.9719 239° Southwest 388 447 24,000 -1,082 Descending Indianapolis Center
Thu 11:36:20 PM 36.9100 -85.0808 239° Southwest 371 427 22,900 -976 Descending Indianapolis Center
Thu 11:37:22 PM 36.8631 -85.1803 239° Southwest 341 392 22,000 -439 Descending Indianapolis Center
Thu 11:38:23 PM 36.8200 -85.2683 239° Southwest 305 351 22,000  Level Indianapolis Center
Thu 11:39:24 PM 36.7767 -85.3569 239° Southwest 302 348 22,000  Level Indianapolis Center
Thu 11:40:32 PM 36.7172 -85.4806 239° Southwest 312 359 22,000 -188 Level Memphis Center
Thu 11:41:32 PM 36.6728 -85.5736 239° Southwest 317 365 21,600 -700 Descending Memphis Center
Thu 11:42:32 PM 36.6300 -85.6511 235° Southwest 323 372 20,600 -1,250 Descending Memphis Center
Thu 11:43:32 PM 36.5894 -85.7389 240° Southwest 310 357 19,100 -2,000 Descending Memphis Center
Thu 11:44:32 PM 36.5453 -85.8369 241° Southwest 305 351 16,600 -2,100 Descending Memphis Center
Thu 11:45:32 PM 36.4964 -85.9247 235° Southwest 305 351 14,900 -1,350 Descending Memphis Center
Thu 11:46:32 PM 36.4300 -85.9981 222° Southwest 311 358 13,900 -1,100 Descending Memphis Center
Thu 11:47:32 PM 36.3742 -86.0656 224° Southwest 321 369 12,700 -1,250 Descending Memphis Center
Thu 11:48:32 PM 36.3139 -86.1383 224° Southwest 315 362 11,400 -1,250 Descending Memphis Center
Thu 11:49:32 PM 36.2600 -86.2053 225° Southwest 288 331 10,200 -1,350 Descending Memphis Center
Thu 11:50:32 PM 36.2058 -86.2672 223° Southwest 278 320 8,700 -1,400 Descending Memphis Center
Thu 11:51:32 PM 36.1514 -86.3292 223° Southwest 271 312 7,400 -1,150 Descending Memphis Center
Thu 11:52:32 PM 36.0953 -86.3936 223° Southwest 261 300 6,400 -950 Descending Memphis Center
Thu 11:53:32 PM 36.0508 -86.4419 221° Southwest 232 267 5,500 -1,550 Descending Memphis Center
Thu 11:54:32 PM 36.0147 -86.4847 224° Southwest 207 238 3,300 -1,450 Descending Memphis Center
Thu 11:55:32 PM 36.0206 -86.5383 278° West 161 185 2,600 -350 Descending Memphis Center
Thu 11:56:32 PM 36.0467 -86.5756 311° West 135 155 2,600 -361 Level Memphis Center
Thu 11:58:18 PM 36.0833 -86.6333 308° West 118 136 1,600 -614 Descending Nashville TRACON
Thu 11:59:18 PM 36.1167 -86.6500 338° Northwest 115 132 900 -700 Descending Nashville TRACON
Fri 12:01:00 AM 36.1167 -86.6667 287° West  Level FlightAware Approximate

Login

Don't have an account? Register now (free) for customized features, flight alerts, and more!